sensor_id;sensor_type;location;lat;lon;timestamp;P1;durP1;ratioP1;P2;durP2;ratioP2
17340;SDS011;8788;49.930;8.660;2023-06-10T00:02:02;7.25;;;6.53;;
17340;SDS011;8788;49.930;8.660;2023-06-10T00:04:29;9.50;;;6.55;;
17340;SDS011;8788;49.930;8.660;2023-06-10T00:06:56;6.07;;;5.38;;
17340;SDS011;8788;49.930;8.660;2023-06-10T00:09:24;7.97;;;6.65;;
17340;SDS011;8788;49.930;8.660;2023-06-10T00:11:51;10.93;;;6.72;;
17340;SDS011;8788;49.930;8.660;2023-06-10T00:14:19;6.65;;;6.07;;
17340;SDS011;8788;49.930;8.660;2023-06-10T00:16:46;8.20;;;6.55;;
17340;SDS011;8788;49.930;8.660;2023-06-10T00:19:14;6.88;;;6.10;;
17340;SDS011;8788;49.930;8.660;2023-06-10T00:21:41;6.78;;;5.80;;
17340;SDS011;8788;49.930;8.660;2023-06-10T00:24:10;6.97;;;6.38;;
17340;SDS011;8788;49.930;8.660;2023-06-10T00:26:37;9.48;;;6.35;;
17340;SDS011;8788;49.930;8.660;2023-06-10T00:29:05;7.25;;;6.55;;
17340;SDS011;8788;49.930;8.660;2023-06-10T00:31:33;7.03;;;6.43;;
17340;SDS011;8788;49.930;8.660;2023-06-10T00:34:00;9.23;;;6.30;;
17340;SDS011;8788;49.930;8.660;2023-06-10T00:36:31;7.55;;;6.85;;
17340;SDS011;8788;49.930;8.660;2023-06-10T00:38:59;15.95;;;6.38;;
17340;SDS011;8788;49.930;8.660;2023-06-10T00:41:26;10.13;;;6.20;;
17340;SDS011;8788;49.930;8.660;2023-06-10T00:43:53;8.07;;;6.70;;
17340;SDS011;8788;49.930;8.660;2023-06-10T00:46:20;7.32;;;6.63;;
17340;SDS011;8788;49.930;8.660;2023-06-10T00:48:48;6.95;;;6.25;;
17340;SDS011;8788;49.930;8.660;2023-06-10T00:51:15;8.00;;;6.78;;
17340;SDS011;8788;49.930;8.660;2023-06-10T00:53:44;7.65;;;6.70;;
17340;SDS011;8788;49.930;8.660;2023-06-10T00:56:13;10.82;;;7.03;;
17340;SDS011;8788;49.930;8.660;2023-06-10T00:58:40;7.47;;;6.72;;
17340;SDS011;8788;49.930;8.660;2023-06-10T01:01:07;7.07;;;6.40;;
17340;SDS011;8788;49.930;8.660;2023-06-10T01:03:36;6.78;;;6.05;;
17340;SDS011;8788;49.930;8.660;2023-06-10T01:06:05;9.63;;;6.85;;
17340;SDS011;8788;49.930;8.660;2023-06-10T01:08:45;7.00;;;6.40;;
17340;SDS011;8788;49.930;8.660;2023-06-10T01:11:19;6.90;;;6.30;;
17340;SDS011;8788;49.930;8.660;2023-06-10T01:13:51;7.25;;;6.65;;
17340;SDS011;8788;49.930;8.660;2023-06-10T01:16:21;9.10;;;7.43;;
17340;SDS011;8788;49.930;8.660;2023-06-10T01:18:48;7.80;;;7.10;;
17340;SDS011;8788;49.930;8.660;2023-06-10T01:21:21;7.75;;;6.90;;
17340;SDS011;8788;49.930;8.660;2023-06-10T01:23:49;7.68;;;7.07;;
17340;SDS011;8788;49.930;8.660;2023-06-10T01:26:19;6.95;;;6.35;;
17340;SDS011;8788;49.930;8.660;2023-06-10T01:28:51;9.50;;;6.57;;
17340;SDS011;8788;49.930;8.660;2023-06-10T01:31:31;6.90;;;6.30;;
17340;SDS011;8788;49.930;8.660;2023-06-10T01:34:07;8.15;;;7.13;;
17340;SDS011;8788;49.930;8.660;2023-06-10T01:36:38;8.43;;;6.47;;
17340;SDS011;8788;49.930;8.660;2023-06-10T01:39:08;7.70;;;7.03;;
17340;SDS011;8788;49.930;8.660;2023-06-10T01:41:37;10.18;;;6.60;;
17340;SDS011;8788;49.930;8.660;2023-06-10T01:44:05;6.68;;;6.18;;
17340;SDS011;8788;49.930;8.660;2023-06-10T01:46:32;8.10;;;6.55;;
17340;SDS011;8788;49.930;8.660;2023-06-10T01:48:59;7.28;;;6.68;;
17340;SDS011;8788;49.930;8.660;2023-06-10T01:51:26;6.57;;;5.97;;
17340;SDS011;8788;49.930;8.660;2023-06-10T01:53:54;10.95;;;6.78;;
17340;SDS011;8788;49.930;8.660;2023-06-10T01:56:21;6.97;;;6.03;;
17340;SDS011;8788;49.930;8.660;2023-06-10T01:58:49;6.43;;;5.80;;
17340;SDS011;8788;49.930;8.660;2023-06-10T02:01:16;8.90;;;6.43;;
17340;SDS011;8788;49.930;8.660;2023-06-10T02:03:43;7.60;;;6.90;;
17340;SDS011;8788;49.930;8.660;2023-06-10T02:06:10;8.43;;;6.80;;
17340;SDS011;8788;49.930;8.660;2023-06-10T02:08:37;7.38;;;6.68;;
17340;SDS011;8788;49.930;8.660;2023-06-10T02:11:06;6.60;;;6.00;;
17340;SDS011;8788;49.930;8.660;2023-06-10T02:13:36;9.82;;;6.32;;
17340;SDS011;8788;49.930;8.660;2023-06-10T02:16:04;7.03;;;6.20;;
17340;SDS011;8788;49.930;8.660;2023-06-10T02:18:33;8.25;;;6.40;;
17340;SDS011;8788;49.930;8.660;2023-06-10T02:21:00;8.18;;;6.60;;
17340;SDS011;8788;49.930;8.660;2023-06-10T02:23:27;6.95;;;6.15;;
17340;SDS011;8788;49.930;8.660;2023-06-10T02:25:54;7.40;;;6.70;;
17340;SDS011;8788;49.930;8.660;2023-06-10T02:28:22;9.02;;;6.93;;
17340;SDS011;8788;49.930;8.660;2023-06-10T02:30:50;7.90;;;6.40;;
17340;SDS011;8788;49.930;8.660;2023-06-10T02:33:19;7.70;;;6.47;;
17340;SDS011;8788;49.930;8.660;2023-06-10T02:35:47;7.63;;;6.93;;
17340;SDS011;8788;49.930;8.660;2023-06-10T02:38:14;8.60;;;6.53;;
17340;SDS011;8788;49.930;8.660;2023-06-10T02:40:42;7.82;;;6.70;;
17340;SDS011;8788;49.930;8.660;2023-06-10T02:43:10;7.13;;;6.43;;
17340;SDS011;8788;49.930;8.660;2023-06-10T02:45:39;7.25;;;6.55;;
17340;SDS011;8788;49.930;8.660;2023-06-10T02:48:07;7.15;;;6.40;;
17340;SDS011;8788;49.930;8.660;2023-06-10T02:50:34;7.20;;;6.57;;
17340;SDS011;8788;49.930;8.660;2023-06-10T02:53:27;7.85;;;6.93;;
17340;SDS011;8788;49.930;8.660;2023-06-10T02:56:02;7.30;;;6.60;;
17340;SDS011;8788;49.930;8.660;2023-06-10T02:58:29;7.60;;;6.85;;
17340;SDS011;8788;49.930;8.660;2023-06-10T03:00:58;7.07;;;6.45;;
17340;SDS011;8788;49.930;8.660;2023-06-10T03:03:27;7.35;;;6.43;;
17340;SDS011;8788;49.930;8.660;2023-06-10T03:06:04;7.22;;;6.53;;
17340;SDS011;8788;49.930;8.660;2023-06-10T03:08:32;9.02;;;6.30;;
17340;SDS011;8788;49.930;8.660;2023-06-10T03:11:04;7.05;;;6.32;;
17340;SDS011;8788;49.930;8.660;2023-06-10T03:13:32;6.97;;;6.15;;
17340;SDS011;8788;49.930;8.660;2023-06-10T03:16:02;9.43;;;6.78;;
17340;SDS011;8788;49.930;8.660;2023-06-10T03:18:30;7.35;;;6.63;;
17340;SDS011;8788;49.930;8.660;2023-06-10T03:20:57;7.45;;;6.25;;
17340;SDS011;8788;49.930;8.660;2023-06-10T03:23:25;6.70;;;6.00;;
17340;SDS011;8788;49.930;8.660;2023-06-10T03:25:54;7.00;;;6.43;;
17340;SDS011;8788;49.930;8.660;2023-06-10T03:28:23;7.57;;;6.90;;
17340;SDS011;8788;49.930;8.660;2023-06-10T03:30:50;9.50;;;7.18;;
17340;SDS011;8788;49.930;8.660;2023-06-10T03:33:19;7.68;;;6.93;;
17340;SDS011;8788;49.930;8.660;2023-06-10T03:35:47;7.32;;;6.63;;
17340;SDS011;8788;49.930;8.660;2023-06-10T03:38:15;7.00;;;6.25;;
17340;SDS011;8788;49.930;8.660;2023-06-10T03:40:42;7.88;;;6.82;;
17340;SDS011;8788;49.930;8.660;2023-06-10T03:43:10;7.60;;;6.75;;
17340;SDS011;8788;49.930;8.660;2023-06-10T03:45:37;7.57;;;6.88;;
17340;SDS011;8788;49.930;8.660;2023-06-10T03:48:04;7.18;;;6.43;;
17340;SDS011;8788;49.930;8.660;2023-06-10T03:50:50;6.25;;;5.65;;
17340;SDS011;8788;49.930;8.660;2023-06-10T03:53:19;7.82;;;5.72;;
17340;SDS011;8788;49.930;8.660;2023-06-10T03:55:47;6.70;;;5.93;;
17340;SDS011;8788;49.930;8.660;2023-06-10T03:58:16;7.30;;;6.60;;
17340;SDS011;8788;49.930;8.660;2023-06-10T04:00:43;7.10;;;6.32;;
17340;SDS011;8788;49.930;8.660;2023-06-10T04:03:10;7.22;;;6.53;;
17340;SDS011;8788;49.930;8.660;2023-06-10T04:05:42;6.10;;;5.53;;
17340;SDS011;8788;49.930;8.660;2023-06-10T04:08:11;6.18;;;5.57;;
17340;SDS011;8788;49.930;8.660;2023-06-10T04:10:38;8.18;;;6.63;;
17340;SDS011;8788;49.930;8.660;2023-06-10T04:13:05;6.50;;;5.93;;
17340;SDS011;8788;49.930;8.660;2023-06-10T04:15:38;6.57;;;5.90;;
17340;SDS011;8788;49.930;8.660;2023-06-10T04:18:09;10.02;;;6.70;;
17340;SDS011;8788;49.930;8.660;2023-06-10T04:20:36;7.95;;;6.47;;
17340;SDS011;8788;49.930;8.660;2023-06-10T04:23:04;9.15;;;7.10;;
17340;SDS011;8788;49.930;8.660;2023-06-10T04:25:32;7.13;;;6.28;;
17340;SDS011;8788;49.930;8.660;2023-06-10T04:27:59;7.53;;;6.57;;
17340;SDS011;8788;49.930;8.660;2023-06-10T04:30:27;7.03;;;6.28;;
17340;SDS011;8788;49.930;8.660;2023-06-10T04:32:56;7.13;;;6.35;;
17340;SDS011;8788;49.930;8.660;2023-06-10T04:35:23;7.13;;;6.38;;
17340;SDS011;8788;49.930;8.660;2023-06-10T04:37:52;7.80;;;7.00;;
17340;SDS011;8788;49.930;8.660;2023-06-10T04:40:19;6.88;;;6.13;;
17340;SDS011;8788;49.930;8.660;2023-06-10T04:42:48;6.88;;;6.35;;
17340;SDS011;8788;49.930;8.660;2023-06-10T04:45:16;10.55;;;7.60;;
17340;SDS011;8788;49.930;8.660;2023-06-10T04:47:43;8.65;;;6.78;;
17340;SDS011;8788;49.930;8.660;2023-06-10T04:50:10;7.78;;;6.75;;
17340;SDS011;8788;49.930;8.660;2023-06-10T04:52:37;6.15;;;5.60;;
17340;SDS011;8788;49.930;8.660;2023-06-10T04:55:06;6.80;;;5.50;;
17340;SDS011;8788;49.930;8.660;2023-06-10T04:57:35;7.75;;;6.80;;
17340;SDS011;8788;49.930;8.660;2023-06-10T05:00:04;7.43;;;6.72;;
17340;SDS011;8788;49.930;8.660;2023-06-10T05:02:32;6.53;;;5.65;;
17340;SDS011;8788;49.930;8.660;2023-06-10T05:04:59;7.43;;;6.53;;
17340;SDS011;8788;49.930;8.660;2023-06-10T05:07:26;6.22;;;5.40;;
17340;SDS011;8788;49.930;8.660;2023-06-10T05:09:53;6.78;;;6.15;;
17340;SDS011;8788;49.930;8.660;2023-06-10T05:12:20;7.07;;;6.22;;
17340;SDS011;8788;49.930;8.660;2023-06-10T05:14:47;7.53;;;5.47;;
17340;SDS011;8788;49.930;8.660;2023-06-10T05:17:16;6.38;;;5.78;;
17340;SDS011;8788;49.930;8.660;2023-06-10T05:19:43;6.60;;;5.68;;
17340;SDS011;8788;49.930;8.660;2023-06-10T05:22:10;7.20;;;5.68;;
17340;SDS011;8788;49.930;8.660;2023-06-10T05:24:38;6.18;;;5.55;;
17340;SDS011;8788;49.930;8.660;2023-06-10T05:27:05;6.75;;;6.15;;
17340;SDS011;8788;49.930;8.660;2023-06-10T05:29:34;7.63;;;6.05;;
17340;SDS011;8788;49.930;8.660;2023-06-10T05:32:01;8.75;;;5.28;;
17340;SDS011;8788;49.930;8.660;2023-06-10T05:34:30;6.50;;;5.07;;
17340;SDS011;8788;49.930;8.660;2023-06-10T05:36:58;7.38;;;5.13;;
17340;SDS011;8788;49.930;8.660;2023-06-10T05:39:25;5.95;;;5.35;;
17340;SDS011;8788;49.930;8.660;2023-06-10T05:41:52;5.60;;;5.10;;
17340;SDS011;8788;49.930;8.660;2023-06-10T05:44:19;7.50;;;6.20;;
17340;SDS011;8788;49.930;8.660;2023-06-10T05:46:46;5.90;;;5.30;;
17340;SDS011;8788;49.930;8.660;2023-06-10T05:49:13;5.68;;;5.18;;
17340;SDS011;8788;49.930;8.660;2023-06-10T05:51:41;7.28;;;5.53;;
17340;SDS011;8788;49.930;8.660;2023-06-10T05:54:09;6.07;;;5.57;;
17340;SDS011;8788;49.930;8.660;2023-06-10T05:56:36;5.95;;;5.28;;
17340;SDS011;8788;49.930;8.660;2023-06-10T05:59:03;5.97;;;5.43;;
17340;SDS011;8788;49.930;8.660;2023-06-10T06:01:30;6.18;;;5.10;;
17340;SDS011;8788;49.930;8.660;2023-06-10T06:03:57;6.53;;;5.60;;
17340;SDS011;8788;49.930;8.660;2023-06-10T06:06:24;6.00;;;5.38;;
17340;SDS011;8788;49.930;8.660;2023-06-10T06:08:52;6.70;;;5.63;;
17340;SDS011;8788;49.930;8.660;2023-06-10T06:11:19;5.38;;;4.88;;
17340;SDS011;8788;49.930;8.660;2023-06-10T06:13:47;5.75;;;5.25;;
17340;SDS011;8788;49.930;8.660;2023-06-10T06:16:14;5.93;;;5.18;;
17340;SDS011;8788;49.930;8.660;2023-06-10T06:18:42;5.32;;;4.82;;
17340;SDS011;8788;49.930;8.660;2023-06-10T06:21:09;5.80;;;4.82;;
17340;SDS011;8788;49.930;8.660;2023-06-10T06:23:36;6.00;;;5.50;;
17340;SDS011;8788;49.930;8.660;2023-06-10T06:26:04;6.30;;;5.60;;
17340;SDS011;8788;49.930;8.660;2023-06-10T06:28:31;5.80;;;5.20;;
17340;SDS011;8788;49.930;8.660;2023-06-10T06:30:59;5.82;;;4.82;;
17340;SDS011;8788;49.930;8.660;2023-06-10T06:33:26;5.63;;;5.13;;
17340;SDS011;8788;49.930;8.660;2023-06-10T06:35:53;5.35;;;4.88;;
17340;SDS011;8788;49.930;8.660;2023-06-10T06:38:21;5.75;;;5.25;;
17340;SDS011;8788;49.930;8.660;2023-06-10T06:40:48;5.82;;;5.10;;
17340;SDS011;8788;49.930;8.660;2023-06-10T06:43:17;5.85;;;5.35;;
17340;SDS011;8788;49.930;8.660;2023-06-10T06:45:54;5.72;;;5.22;;
17340;SDS011;8788;49.930;8.660;2023-06-10T06:48:22;5.60;;;5.10;;
17340;SDS011;8788;49.930;8.660;2023-06-10T06:50:49;5.55;;;4.95;;
17340;SDS011;8788;49.930;8.660;2023-06-10T06:53:16;5.90;;;5.10;;
17340;SDS011;8788;49.930;8.660;2023-06-10T06:55:43;6.55;;;5.07;;
17340;SDS011;8788;49.930;8.660;2023-06-10T06:58:10;6.53;;;5.65;;
17340;SDS011;8788;49.930;8.660;2023-06-10T07:00:39;9.98;;;5.32;;
17340;SDS011;8788;49.930;8.660;2023-06-10T07:03:06;4.97;;;4.57;;
17340;SDS011;8788;49.930;8.660;2023-06-10T07:05:33;6.53;;;5.75;;
17340;SDS011;8788;49.930;8.660;2023-06-10T07:08:00;12.85;;;4.90;;
17340;SDS011;8788;49.930;8.660;2023-06-10T07:10:28;5.38;;;4.93;;
17340;SDS011;8788;49.930;8.660;2023-06-10T07:12:55;5.70;;;5.13;;
17340;SDS011;8788;49.930;8.660;2023-06-10T07:15:22;7.78;;;4.85;;
17340;SDS011;8788;49.930;8.660;2023-06-10T07:17:50;7.55;;;5.13;;
17340;SDS011;8788;49.930;8.660;2023-06-10T07:20:17;5.90;;;5.13;;
17340;SDS011;8788;49.930;8.660;2023-06-10T07:22:44;5.03;;;4.53;;
17340;SDS011;8788;49.930;8.660;2023-06-10T07:25:11;5.70;;;5.15;;
17340;SDS011;8788;49.930;8.660;2023-06-10T07:27:38;5.97;;;5.47;;
17340;SDS011;8788;49.930;8.660;2023-06-10T07:30:06;6.00;;;5.50;;
17340;SDS011;8788;49.930;8.660;2023-06-10T07:32:34;5.50;;;4.68;;
17340;SDS011;8788;49.930;8.660;2023-06-10T07:35:03;5.97;;;5.38;;
17340;SDS011;8788;49.930;8.660;2023-06-10T07:37:32;5.65;;;5.15;;
17340;SDS011;8788;49.930;8.660;2023-06-10T07:39:59;6.35;;;5.32;;
17340;SDS011;8788;49.930;8.660;2023-06-10T07:42:26;5.63;;;5.03;;
17340;SDS011;8788;49.930;8.660;2023-06-10T07:44:53;9.18;;;5.00;;
17340;SDS011;8788;49.930;8.660;2023-06-10T07:47:20;8.15;;;5.10;;
17340;SDS011;8788;49.930;8.660;2023-06-10T07:49:47;7.63;;;6.03;;
17340;SDS011;8788;49.930;8.660;2023-06-10T07:52:16;5.82;;;5.30;;
17340;SDS011;8788;49.930;8.660;2023-06-10T07:54:43;9.35;;;4.65;;
17340;SDS011;8788;49.930;8.660;2023-06-10T07:57:10;5.28;;;4.78;;
17340;SDS011;8788;49.930;8.660;2023-06-10T07:59:37;7.15;;;5.05;;
17340;SDS011;8788;49.930;8.660;2023-06-10T08:02:05;7.57;;;5.28;;
17340;SDS011;8788;49.930;8.660;2023-06-10T08:04:32;5.47;;;5.00;;
17340;SDS011;8788;49.930;8.660;2023-06-10T08:07:00;5.70;;;5.10;;
17340;SDS011;8788;49.930;8.660;2023-06-10T08:09:28;5.78;;;5.00;;
17340;SDS011;8788;49.930;8.660;2023-06-10T08:11:56;6.18;;;4.82;;
17340;SDS011;8788;49.930;8.660;2023-06-10T08:14:23;5.60;;;5.05;;
17340;SDS011;8788;49.930;8.660;2023-06-10T08:16:50;5.68;;;5.13;;
17340;SDS011;8788;49.930;8.660;2023-06-10T08:19:17;7.30;;;4.68;;
17340;SDS011;8788;49.930;8.660;2023-06-10T08:21:44;5.65;;;5.07;;
17340;SDS011;8788;49.930;8.660;2023-06-10T08:24:11;5.70;;;5.15;;
17340;SDS011;8788;49.930;8.660;2023-06-10T08:26:41;5.00;;;4.60;;
17340;SDS011;8788;49.930;8.660;2023-06-10T08:29:08;5.07;;;4.68;;
17340;SDS011;8788;49.930;8.660;2023-06-10T08:31:39;7.63;;;4.95;;
17340;SDS011;8788;49.930;8.660;2023-06-10T08:34:08;5.75;;;5.22;;
17340;SDS011;8788;49.930;8.660;2023-06-10T08:36:35;6.43;;;5.82;;
17340;SDS011;8788;49.930;8.660;2023-06-10T08:39:02;6.07;;;5.10;;
17340;SDS011;8788;49.930;8.660;2023-06-10T08:41:30;5.53;;;4.95;;
17340;SDS011;8788;49.930;8.660;2023-06-10T08:44:08;8.15;;;5.18;;
17340;SDS011;8788;49.930;8.660;2023-06-10T08:46:38;7.40;;;5.22;;
17340;SDS011;8788;49.930;8.660;2023-06-10T08:49:11;5.38;;;4.88;;
17340;SDS011;8788;49.930;8.660;2023-06-10T08:51:46;5.45;;;5.05;;
17340;SDS011;8788;49.930;8.660;2023-06-10T08:54:17;7.72;;;5.18;;
17340;SDS011;8788;49.930;8.660;2023-06-10T08:56:51;6.22;;;5.53;;
17340;SDS011;8788;49.930;8.660;2023-06-10T08:59:24;5.68;;;4.90;;
17340;SDS011;8788;49.930;8.660;2023-06-10T09:01:52;5.55;;;5.05;;
17340;SDS011;8788;49.930;8.660;2023-06-10T09:04:20;5.18;;;4.57;;
17340;SDS011;8788;49.930;8.660;2023-06-10T09:06:48;4.90;;;4.50;;
17340;SDS011;8788;49.930;8.660;2023-06-10T09:09:16;5.82;;;5.20;;
17340;SDS011;8788;49.930;8.660;2023-06-10T09:11:44;5.30;;;4.88;;
17340;SDS011;8788;49.930;8.660;2023-06-10T09:14:13;7.82;;;5.57;;
17340;SDS011;8788;49.930;8.660;2023-06-10T09:16:43;4.90;;;4.50;;
17340;SDS011;8788;49.930;8.660;2023-06-10T09:19:11;7.05;;;5.47;;
17340;SDS011;8788;49.930;8.660;2023-06-10T09:21:40;6.45;;;5.00;;
17340;SDS011;8788;49.930;8.660;2023-06-10T09:24:07;8.30;;;4.93;;
17340;SDS011;8788;49.930;8.660;2023-06-10T09:26:35;6.70;;;4.50;;
17340;SDS011;8788;49.930;8.660;2023-06-10T09:29:04;8.95;;;4.85;;
17340;SDS011;8788;49.930;8.660;2023-06-10T09:31:34;7.22;;;4.78;;
17340;SDS011;8788;49.930;8.660;2023-06-10T09:34:07;5.10;;;4.60;;
17340;SDS011;8788;49.930;8.660;2023-06-10T09:36:35;5.72;;;5.20;;
17340;SDS011;8788;49.930;8.660;2023-06-10T09:39:03;5.10;;;4.70;;
17340;SDS011;8788;49.930;8.660;2023-06-10T09:41:31;5.32;;;4.80;;
17340;SDS011;8788;49.930;8.660;2023-06-10T09:43:59;5.75;;;5.20;;
17340;SDS011;8788;49.930;8.660;2023-06-10T09:46:30;5.30;;;4.82;;
17340;SDS011;8788;49.930;8.660;2023-06-10T09:48:58;5.40;;;4.95;;
17340;SDS011;8788;49.930;8.660;2023-06-10T09:51:26;6.40;;;5.03;;
17340;SDS011;8788;49.930;8.660;2023-06-10T09:53:53;7.40;;;4.88;;
17340;SDS011;8788;49.930;8.660;2023-06-10T09:56:21;4.82;;;4.43;;
17340;SDS011;8788;49.930;8.660;2023-06-10T09:58:58;9.10;;;4.90;;
17340;SDS011;8788;49.930;8.660;2023-06-10T10:01:25;5.03;;;4.60;;
17340;SDS011;8788;49.930;8.660;2023-06-10T10:03:52;6.28;;;4.75;;
17340;SDS011;8788;49.930;8.660;2023-06-10T10:06:20;4.43;;;4.10;;
17340;SDS011;8788;49.930;8.660;2023-06-10T10:08:49;5.20;;;4.78;;
17340;SDS011;8788;49.930;8.660;2023-06-10T10:11:17;5.60;;;4.95;;
17340;SDS011;8788;49.930;8.660;2023-06-10T10:13:47;5.45;;;4.95;;
17340;SDS011;8788;49.930;8.660;2023-06-10T10:16:16;5.10;;;4.30;;
17340;SDS011;8788;49.930;8.660;2023-06-10T10:18:45;5.30;;;4.90;;
17340;SDS011;8788;49.930;8.660;2023-06-10T10:21:16;4.60;;;4.20;;
17340;SDS011;8788;49.930;8.660;2023-06-10T10:23:48;6.18;;;4.45;;
17340;SDS011;8788;49.930;8.660;2023-06-10T10:26:24;4.50;;;4.10;;
17340;SDS011;8788;49.930;8.660;2023-06-10T10:28:55;4.43;;;4.00;;
17340;SDS011;8788;49.930;8.660;2023-06-10T10:31:27;5.95;;;3.70;;
17340;SDS011;8788;49.930;8.660;2023-06-10T10:33:59;4.50;;;3.90;;
17340;SDS011;8788;49.930;8.660;2023-06-10T10:36:28;4.32;;;3.92;;
17340;SDS011;8788;49.930;8.660;2023-06-10T10:38:57;5.32;;;3.55;;
17340;SDS011;8788;49.930;8.660;2023-06-10T10:41:27;4.90;;;3.50;;
17340;SDS011;8788;49.930;8.660;2023-06-10T10:43:54;4.80;;;3.65;;
17340;SDS011;8788;49.930;8.660;2023-06-10T10:46:22;3.80;;;3.50;;
17340;SDS011;8788;49.930;8.660;2023-06-10T10:48:51;3.85;;;3.15;;
17340;SDS011;8788;49.930;8.660;2023-06-10T10:51:19;3.75;;;3.38;;
17340;SDS011;8788;49.930;8.660;2023-06-10T10:56:38;4.07;;;3.33;;
17340;SDS011;8788;49.930;8.660;2023-06-10T10:59:05;3.80;;;3.22;;
17340;SDS011;8788;49.930;8.660;2023-06-10T11:01:42;4.13;;;3.83;;
17340;SDS011;8788;49.930;8.660;2023-06-10T11:04:11;3.92;;;3.63;;
17340;SDS011;8788;49.930;8.660;2023-06-10T11:06:38;3.75;;;3.45;;
17340;SDS011;8788;49.930;8.660;2023-06-10T11:11:56;4.18;;;3.85;;
17340;SDS011;8788;49.930;8.660;2023-06-10T11:14:28;7.45;;;3.40;;
17340;SDS011;8788;49.930;8.660;2023-06-10T11:16:57;5.85;;;3.25;;
17340;SDS011;8788;49.930;8.660;2023-06-10T11:19:31;3.22;;;2.80;;
17340;SDS011;8788;49.930;8.660;2023-06-10T11:21:59;4.15;;;3.17;;
17340;SDS011;8788;49.930;8.660;2023-06-10T11:24:29;3.33;;;3.03;;
17340;SDS011;8788;49.930;8.660;2023-06-10T11:29:55;5.72;;;2.92;;
17340;SDS011;8788;49.930;8.660;2023-06-10T11:32:23;3.38;;;3.17;;
17340;SDS011;8788;49.930;8.660;2023-06-10T11:35:02;3.88;;;3.00;;
17340;SDS011;8788;49.930;8.660;2023-06-10T11:37:29;3.63;;;2.95;;
17340;SDS011;8788;49.930;8.660;2023-06-10T11:39:58;4.00;;;2.85;;
17340;SDS011;8788;49.930;8.660;2023-06-10T11:42:25;3.25;;;2.95;;
17340;SDS011;8788;49.930;8.660;2023-06-10T11:44:53;2.90;;;2.60;;
17340;SDS011;8788;49.930;8.660;2023-06-10T11:47:21;2.53;;;2.33;;
17340;SDS011;8788;49.930;8.660;2023-06-10T11:49:55;3.15;;;2.72;;
17340;SDS011;8788;49.930;8.660;2023-06-10T11:52:25;2.38;;;2.20;;
17340;SDS011;8788;49.930;8.660;2023-06-10T11:54:53;3.90;;;2.70;;
17340;SDS011;8788;49.930;8.660;2023-06-10T11:57:22;2.70;;;2.50;;
17340;SDS011;8788;49.930;8.660;2023-06-10T11:59:49;3.22;;;2.70;;
17340;SDS011;8788;49.930;8.660;2023-06-10T12:02:16;2.72;;;2.53;;
17340;SDS011;8788;49.930;8.660;2023-06-10T12:04:45;3.08;;;2.78;;
17340;SDS011;8788;49.930;8.660;2023-06-10T12:07:16;3.05;;;2.47;;
17340;SDS011;8788;49.930;8.660;2023-06-10T12:09:44;3.17;;;2.65;;
17340;SDS011;8788;49.930;8.660;2023-06-10T12:12:11;2.90;;;2.70;;
17340;SDS011;8788;49.930;8.660;2023-06-10T12:14:53;2.97;;;2.78;;
17340;SDS011;8788;49.930;8.660;2023-06-10T12:17:21;3.00;;;2.70;;
17340;SDS011;8788;49.930;8.660;2023-06-10T12:19:50;3.38;;;3.08;;
17340;SDS011;8788;49.930;8.660;2023-06-10T12:22:18;2.85;;;2.65;;
17340;SDS011;8788;49.930;8.660;2023-06-10T12:24:45;3.55;;;2.80;;
17340;SDS011;8788;49.930;8.660;2023-06-10T12:27:24;3.15;;;2.85;;
17340;SDS011;8788;49.930;8.660;2023-06-10T12:29:55;2.80;;;2.60;;
17340;SDS011;8788;49.930;8.660;2023-06-10T12:32:34;3.88;;;3.00;;
17340;SDS011;8788;49.930;8.660;2023-06-10T12:35:02;2.75;;;2.55;;
17340;SDS011;8788;49.930;8.660;2023-06-10T12:37:30;3.10;;;2.80;;
17340;SDS011;8788;49.930;8.660;2023-06-10T12:39:59;3.28;;;2.67;;
17340;SDS011;8788;49.930;8.660;2023-06-10T12:42:28;3.13;;;2.92;;
17340;SDS011;8788;49.930;8.660;2023-06-10T12:44:56;3.17;;;2.88;;
17340;SDS011;8788;49.930;8.660;2023-06-10T12:47:29;3.08;;;2.78;;
17340;SDS011;8788;49.930;8.660;2023-06-10T12:49:58;2.60;;;2.40;;
17340;SDS011;8788;49.930;8.660;2023-06-10T12:52:25;3.47;;;2.65;;
17340;SDS011;8788;49.930;8.660;2023-06-10T12:54:52;3.40;;;3.20;;
17340;SDS011;8788;49.930;8.660;2023-06-10T12:57:20;4.47;;;2.90;;
17340;SDS011;8788;49.930;8.660;2023-06-10T12:59:47;3.40;;;3.03;;
17340;SDS011;8788;49.930;8.660;2023-06-10T13:02:19;4.47;;;3.28;;
17340;SDS011;8788;49.930;8.660;2023-06-10T13:04:48;3.10;;;2.90;;
17340;SDS011;8788;49.930;8.660;2023-06-10T13:07:16;3.30;;;3.10;;
17340;SDS011;8788;49.930;8.660;2023-06-10T13:09:43;3.33;;;3.10;;
17340;SDS011;8788;49.930;8.660;2023-06-10T13:12:14;5.60;;;2.75;;
17340;SDS011;8788;49.930;8.660;2023-06-10T13:14:42;5.63;;;3.78;;
17340;SDS011;8788;49.930;8.660;2023-06-10T13:17:10;3.38;;;3.08;;
17340;SDS011;8788;49.930;8.660;2023-06-10T13:19:38;3.35;;;3.05;;
17340;SDS011;8788;49.930;8.660;2023-06-10T13:22:05;3.28;;;2.97;;
17340;SDS011;8788;49.930;8.660;2023-06-10T13:24:34;3.58;;;3.20;;
17340;SDS011;8788;49.930;8.660;2023-06-10T13:27:01;4.90;;;3.33;;
17340;SDS011;8788;49.930;8.660;2023-06-10T13:29:28;3.60;;;3.30;;
17340;SDS011;8788;49.930;8.660;2023-06-10T13:31:56;3.40;;;3.20;;
17340;SDS011;8788;49.930;8.660;2023-06-10T13:34:23;6.20;;;3.17;;
17340;SDS011;8788;49.930;8.660;2023-06-10T13:36:51;3.55;;;3.25;;
17340;SDS011;8788;49.930;8.660;2023-06-10T13:39:18;4.85;;;3.55;;
17340;SDS011;8788;49.930;8.660;2023-06-10T13:41:45;4.28;;;3.38;;
17340;SDS011;8788;49.930;8.660;2023-06-10T13:44:13;3.67;;;3.38;;
17340;SDS011;8788;49.930;8.660;2023-06-10T13:46:40;3.35;;;3.05;;
17340;SDS011;8788;49.930;8.660;2023-06-10T13:49:07;3.70;;;3.40;;
17340;SDS011;8788;49.930;8.660;2023-06-10T13:51:34;7.35;;;3.35;;
17340;SDS011;8788;49.930;8.660;2023-06-10T13:54:02;3.47;;;3.17;;
17340;SDS011;8788;49.930;8.660;2023-06-10T13:56:29;3.22;;;2.67;;
17340;SDS011;8788;49.930;8.660;2023-06-10T13:58:56;3.72;;;3.42;;
17340;SDS011;8788;49.930;8.660;2023-06-10T14:01:23;4.07;;;3.72;;
17340;SDS011;8788;49.930;8.660;2023-06-10T14:03:50;3.58;;;3.00;;
17340;SDS011;8788;49.930;8.660;2023-06-10T14:06:17;4.32;;;3.60;;
17340;SDS011;8788;49.930;8.660;2023-06-10T14:08:45;3.92;;;3.47;;
17340;SDS011;8788;49.930;8.660;2023-06-10T14:11:13;5.05;;;3.67;;
17340;SDS011;8788;49.930;8.660;2023-06-10T14:13:41;5.15;;;4.15;;
17340;SDS011;8788;49.930;8.660;2023-06-10T14:16:08;5.40;;;4.82;;
17340;SDS011;8788;49.930;8.660;2023-06-10T14:18:35;4.65;;;4.07;;
17340;SDS011;8788;49.930;8.660;2023-06-10T14:21:02;7.10;;;3.60;;
17340;SDS011;8788;49.930;8.660;2023-06-10T14:23:29;3.95;;;3.65;;
17340;SDS011;8788;49.930;8.660;2023-06-10T14:25:56;4.85;;;3.83;;
17340;SDS011;8788;49.930;8.660;2023-06-10T14:28:25;5.18;;;3.33;;
17340;SDS011;8788;49.930;8.660;2023-06-10T14:30:52;4.47;;;3.28;;
17340;SDS011;8788;49.930;8.660;2023-06-10T14:33:20;3.67;;;3.40;;
17340;SDS011;8788;49.930;8.660;2023-06-10T14:35:47;3.40;;;3.10;;
17340;SDS011;8788;49.930;8.660;2023-06-10T14:38:14;4.10;;;3.72;;
17340;SDS011;8788;49.930;8.660;2023-06-10T14:40:41;3.90;;;3.33;;
17340;SDS011;8788;49.930;8.660;2023-06-10T14:43:08;4.82;;;3.53;;
17340;SDS011;8788;49.930;8.660;2023-06-10T14:45:37;4.38;;;3.47;;
17340;SDS011;8788;49.930;8.660;2023-06-10T14:48:05;3.47;;;3.17;;
17340;SDS011;8788;49.930;8.660;2023-06-10T14:50:32;3.67;;;3.38;;
17340;SDS011;8788;49.930;8.660;2023-06-10T14:53:01;4.82;;;3.22;;
17340;SDS011;8788;49.930;8.660;2023-06-10T14:55:28;4.53;;;3.22;;
17340;SDS011;8788;49.930;8.660;2023-06-10T14:57:55;3.55;;;3.25;;
17340;SDS011;8788;49.930;8.660;2023-06-10T15:00:23;3.22;;;3.03;;
17340;SDS011;8788;49.930;8.660;2023-06-10T15:02:52;6.85;;;3.53;;
17340;SDS011;8788;49.930;8.660;2023-06-10T15:05:21;4.60;;;3.78;;
17340;SDS011;8788;49.930;8.660;2023-06-10T15:07:48;4.70;;;3.80;;
17340;SDS011;8788;49.930;8.660;2023-06-10T15:10:15;3.72;;;3.40;;
17340;SDS011;8788;49.930;8.660;2023-06-10T15:12:43;3.60;;;3.30;;
17340;SDS011;8788;49.930;8.660;2023-06-10T15:15:10;4.05;;;3.65;;
17340;SDS011;8788;49.930;8.660;2023-06-10T15:17:37;3.25;;;2.95;;